sensor_id;sensor_type;location;lat;lon;timestamp;P1;durP1;ratioP1;P2;durP2;ratioP2
48891;SDS011;50130;52.150;5.236;2023-02-26T00:03:03;12.9;;;5.4;;
48891;SDS011;50130;52.150;5.236;2023-02-26T00:04:40;12.1;;;4.91;;
48891;SDS011;50130;52.150;5.236;2023-02-26T00:06:17;14.6;;;5.11;;
48891;SDS011;50130;52.150;5.236;2023-02-26T00:09:30;16.5;;;5.4;;
48891;SDS011;50130;52.150;5.236;2023-02-26T00:11:07;15.0;;;5.7;;
48891;SDS011;50130;52.150;5.236;2023-02-26T00:12:47;14.6;;;5.5;;
48891;SDS011;50130;52.150;5.236;2023-02-26T00:14:24;14.4;;;5.2;;
48891;SDS011;50130;52.150;5.236;2023-02-26T00:17:50;16.7;;;5.11;;
48891;SDS011;50130;52.150;5.236;2023-02-26T00:19:34;15.1;;;5.2;;
48891;SDS011;50130;52.150;5.236;2023-02-26T00:21:13;14.9;;;5.4;;
48891;SDS011;50130;52.150;5.236;2023-02-26T00:22:52;13.9;;;5.2;;
48891;SDS011;50130;52.150;5.236;2023-02-26T00:26:05;12.6;;;4.5;;
48891;SDS011;50130;52.150;5.236;2023-02-26T00:27:41;11.2;;;4.7;;
48891;SDS011;50130;52.150;5.236;2023-02-26T00:29:19;13.0;;;4.7;;
48891;SDS011;50130;52.150;5.236;2023-02-26T00:32:33;13.6;;;4.8;;
48891;SDS011;50130;52.150;5.236;2023-02-26T00:34:10;9.9;;;4.2;;
48891;SDS011;50130;52.150;5.236;2023-02-26T00:35:48;9.81;;;3.3;;
48891;SDS011;50130;52.150;5.236;2023-02-26T00:37:46;8.71;;;2.8;;
48891;SDS011;50130;52.150;5.236;2023-02-26T00:39:35;11.6;;;3.5;;
48891;SDS011;50130;52.150;5.236;2023-02-26T00:42:58;11.1;;;3.7;;
48891;SDS011;50130;52.150;5.236;2023-02-26T00:44:36;11.9;;;2.6;;
48891;SDS011;50130;52.150;5.236;2023-02-26T00:46:14;9.0;;;2.0;;
48891;SDS011;50130;52.150;5.236;2023-02-26T00:48:07;8.31;;;1.8;;
48891;SDS011;50130;52.150;5.236;2023-02-26T00:50:13;11.6;;;2.0;;
48891;SDS011;50130;52.150;5.236;2023-02-26T00:53:35;8.4;;;1.7;;
48891;SDS011;50130;52.150;5.236;2023-02-26T00:55:19;11.1;;;2.0;;
48891;SDS011;50130;52.150;5.236;2023-02-26T00:56:57;11.0;;;1.9;;
48891;SDS011;50130;52.150;5.236;2023-02-26T00:58:34;8.2;;;1.6;;
48891;SDS011;50130;52.150;5.236;2023-02-26T01:01:48;7.9;;;1.9;;
48891;SDS011;50130;52.150;5.236;2023-02-26T01:03:26;10.3;;;1.8;;
48891;SDS011;50130;52.150;5.236;2023-02-26T01:05:06;9.21;;;1.6;;
48891;SDS011;50130;52.150;5.236;2023-02-26T01:06:45;8.1;;;1.6;;
48891;SDS011;50130;52.150;5.236;2023-02-26T01:10:09;8.71;;;1.6;;
48891;SDS011;50130;52.150;5.236;2023-02-26T01:11:47;7.9;;;1.4;;
48891;SDS011;50130;52.150;5.236;2023-02-26T01:13:25;7.6;;;1.5;;
48891;SDS011;50130;52.150;5.236;2023-02-26T01:16:43;7.8;;;1.6;;
48891;SDS011;50130;52.150;5.236;2023-02-26T01:18:27;10.6;;;1.5;;
48891;SDS011;50130;52.150;5.236;2023-02-26T01:20:14;9.81;;;1.7;;
48891;SDS011;50130;52.150;5.236;2023-02-26T01:21:55;7.9;;;1.6;;
48891;SDS011;50130;52.150;5.236;2023-02-26T01:23:39;9.81;;;1.5;;
48891;SDS011;50130;52.150;5.236;2023-02-26T01:27:01;13.3;;;1.7;;
48891;SDS011;50130;52.150;5.236;2023-02-26T01:28:38;11.0;;;1.8;;
48891;SDS011;50130;52.150;5.236;2023-02-26T01:30:16;10.1;;;1.6;;
48891;SDS011;50130;52.150;5.236;2023-02-26T01:31:53;9.31;;;1.8;;
48891;SDS011;50130;52.150;5.236;2023-02-26T01:35:22;9.1;;;1.5;;
48891;SDS011;50130;52.150;5.236;2023-02-26T01:37:14;9.31;;;1.9;;
48891;SDS011;50130;52.150;5.236;2023-02-26T01:39:07;9.5;;;1.6;;
48891;SDS011;50130;52.150;5.236;2023-02-26T01:41:28;13.3;;;2.31;;
48891;SDS011;50130;52.150;5.236;2023-02-26T01:43:09;12.4;;;1.8;;
48891;SDS011;50130;52.150;5.236;2023-02-26T01:44:54;10.6;;;1.8;;
48891;SDS011;50130;52.150;5.236;2023-02-26T01:46:35;8.81;;;1.6;;
48891;SDS011;50130;52.150;5.236;2023-02-26T01:50:14;8.81;;;1.6;;
48891;SDS011;50130;52.150;5.236;2023-02-26T01:51:55;7.8;;;1.6;;
48891;SDS011;50130;52.150;5.236;2023-02-26T01:53:33;8.6;;;2.1;;
48891;SDS011;50130;52.150;5.236;2023-02-26T01:55:10;8.9;;;1.6;;
48891;SDS011;50130;52.150;5.236;2023-02-26T01:58:29;10.21;;;1.7;;
48891;SDS011;50130;52.150;5.236;2023-02-26T02:00:09;10.7;;;1.6;;
48891;SDS011;50130;52.150;5.236;2023-02-26T02:01:47;10.3;;;1.7;;
48891;SDS011;50130;52.150;5.236;2023-02-26T02:03:25;8.71;;;1.7;;
48891;SDS011;50130;52.150;5.236;2023-02-26T02:06:50;10.9;;;2.21;;
48891;SDS011;50130;52.150;5.236;2023-02-26T02:08:29;9.5;;;1.6;;
48891;SDS011;50130;52.150;5.236;2023-02-26T02:10:08;8.81;;;1.5;;
48891;SDS011;50130;52.150;5.236;2023-02-26T02:11:51;8.2;;;1.5;;
48891;SDS011;50130;52.150;5.236;2023-02-26T02:13:48;10.6;;;1.5;;
48891;SDS011;50130;52.150;5.236;2023-02-26T02:17:22;8.0;;;1.8;;
48891;SDS011;50130;52.150;5.236;2023-02-26T02:19:17;7.1;;;1.4;;
48891;SDS011;50130;52.150;5.236;2023-02-26T02:21:23;11.2;;;1.5;;
48891;SDS011;50130;52.150;5.236;2023-02-26T02:23:29;12.9;;;2.0;;
48891;SDS011;50130;52.150;5.236;2023-02-26T02:25:17;12.1;;;1.6;;
48891;SDS011;50130;52.150;5.236;2023-02-26T02:27:11;7.4;;;2.1;;
48891;SDS011;50130;52.150;5.236;2023-02-26T02:29:02;7.0;;;1.4;;
48891;SDS011;50130;52.150;5.236;2023-02-26T02:31:04;7.6;;;1.5;;
48891;SDS011;50130;52.150;5.236;2023-02-26T02:32:44;9.21;;;1.5;;
48891;SDS011;50130;52.150;5.236;2023-02-26T02:36:11;9.1;;;1.6;;
48891;SDS011;50130;52.150;5.236;2023-02-26T02:37:56;8.4;;;1.8;;
48891;SDS011;50130;52.150;5.236;2023-02-26T02:39:40;8.4;;;1.9;;
48891;SDS011;50130;52.150;5.236;2023-02-26T02:41:21;10.0;;;1.6;;
48891;SDS011;50130;52.150;5.236;2023-02-26T02:43:10;7.8;;;1.5;;
48891;SDS011;50130;52.150;5.236;2023-02-26T02:46:33;8.1;;;1.6;;
48891;SDS011;50130;52.150;5.236;2023-02-26T02:48:15;7.2;;;1.3;;
48891;SDS011;50130;52.150;5.236;2023-02-26T02:49:58;10.21;;;1.7;;
48891;SDS011;50130;52.150;5.236;2023-02-26T02:51:43;7.9;;;1.6;;
48891;SDS011;50130;52.150;5.236;2023-02-26T02:53:27;9.71;;;1.7;;
48891;SDS011;50130;52.150;5.236;2023-02-26T02:56:54;7.4;;;1.6;;
48891;SDS011;50130;52.150;5.236;2023-02-26T02:58:34;7.9;;;1.5;;
48891;SDS011;50130;52.150;5.236;2023-02-26T03:00:15;5.9;;;1.3;;
48891;SDS011;50130;52.150;5.236;2023-02-26T03:01:58;8.71;;;2.1;;
48891;SDS011;50130;52.150;5.236;2023-02-26T03:05:27;9.31;;;1.5;;
48891;SDS011;50130;52.150;5.236;2023-02-26T03:07:04;8.31;;;1.6;;
48891;SDS011;50130;52.150;5.236;2023-02-26T03:08:40;6.7;;;1.6;;
48891;SDS011;50130;52.150;5.236;2023-02-26T03:10:19;6.5;;;1.4;;
48891;SDS011;50130;52.150;5.236;2023-02-26T03:13:32;7.9;;;1.5;;
48891;SDS011;50130;52.150;5.236;2023-02-26T03:15:10;11.4;;;1.5;;
48891;SDS011;50130;52.150;5.236;2023-02-26T03:16:54;8.1;;;1.5;;
48891;SDS011;50130;52.150;5.236;2023-02-26T03:18:56;7.1;;;1.4;;
48891;SDS011;50130;52.150;5.236;2023-02-26T03:20:42;6.1;;;1.2;;
48891;SDS011;50130;52.150;5.236;2023-02-26T03:24:18;7.5;;;1.7;;
48891;SDS011;50130;52.150;5.236;2023-02-26T03:26:07;7.6;;;1.8;;
48891;SDS011;50130;52.150;5.236;2023-02-26T03:27:51;8.2;;;1.2;;
48891;SDS011;50130;52.150;5.236;2023-02-26T03:29:46;7.6;;;1.4;;
48891;SDS011;50130;52.150;5.236;2023-02-26T03:31:28;5.5;;;1.3;;
48891;SDS011;50130;52.150;5.236;2023-02-26T03:33:10;7.5;;;1.5;;
48891;SDS011;50130;52.150;5.236;2023-02-26T03:36:36;6.8;;;1.4;;
48891;SDS011;50130;52.150;5.236;2023-02-26T03:38:20;7.6;;;1.5;;
48891;SDS011;50130;52.150;5.236;2023-02-26T03:40:14;7.3;;;1.6;;
48891;SDS011;50130;52.150;5.236;2023-02-26T03:41:56;6.8;;;1.6;;
48891;SDS011;50130;52.150;5.236;2023-02-26T03:43:40;7.2;;;1.4;;
48891;SDS011;50130;52.150;5.236;2023-02-26T03:47:05;7.7;;;1.6;;
48891;SDS011;50130;52.150;5.236;2023-02-26T03:48:45;8.5;;;1.7;;
48891;SDS011;50130;52.150;5.236;2023-02-26T03:50:27;8.31;;;1.5;;
48891;SDS011;50130;52.150;5.236;2023-02-26T03:52:08;5.9;;;1.3;;
48891;SDS011;50130;52.150;5.236;2023-02-26T03:55:30;7.8;;;1.6;;
48891;SDS011;50130;52.150;5.236;2023-02-26T03:57:11;5.9;;;1.4;;
48891;SDS011;50130;52.150;5.236;2023-02-26T03:58:47;8.31;;;1.5;;
48891;SDS011;50130;52.150;5.236;2023-02-26T04:00:25;11.2;;;2.0;;
48891;SDS011;50130;52.150;5.236;2023-02-26T04:03:46;6.2;;;1.4;;
48891;SDS011;50130;52.150;5.236;2023-02-26T04:05:29;9.5;;;1.7;;
48891;SDS011;50130;52.150;5.236;2023-02-26T04:07:11;9.0;;;1.6;;
48891;SDS011;50130;52.150;5.236;2023-02-26T04:08:49;8.2;;;1.4;;
48891;SDS011;50130;52.150;5.236;2023-02-26T04:12:11;7.5;;;1.5;;
48891;SDS011;50130;52.150;5.236;2023-02-26T04:13:48;8.81;;;1.5;;
48891;SDS011;50130;52.150;5.236;2023-02-26T04:15:24;7.7;;;1.5;;
48891;SDS011;50130;52.150;5.236;2023-02-26T04:18:37;7.5;;;1.3;;
48891;SDS011;50130;52.150;5.236;2023-02-26T04:20:14;5.0;;;1.3;;
48891;SDS011;50130;52.150;5.236;2023-02-26T04:21:51;7.8;;;1.3;;
48891;SDS011;50130;52.150;5.236;2023-02-26T04:23:27;7.6;;;1.6;;
48891;SDS011;50130;52.150;5.236;2023-02-26T04:26:41;8.4;;;1.4;;
48891;SDS011;50130;52.150;5.236;2023-02-26T04:28:18;6.8;;;1.8;;
48891;SDS011;50130;52.150;5.236;2023-02-26T04:29:54;5.11;;;1.2;;
48891;SDS011;50130;52.150;5.236;2023-02-26T04:33:06;8.0;;;1.5;;
48891;SDS011;50130;52.150;5.236;2023-02-26T04:34:42;7.0;;;1.3;;
48891;SDS011;50130;52.150;5.236;2023-02-26T04:36:19;7.1;;;1.4;;
48891;SDS011;50130;52.150;5.236;2023-02-26T04:39:33;9.5;;;1.9;;
48891;SDS011;50130;52.150;5.236;2023-02-26T04:41:09;8.81;;;1.7;;
48891;SDS011;50130;52.150;5.236;2023-02-26T04:42:45;6.8;;;1.6;;
48891;SDS011;50130;52.150;5.236;2023-02-26T04:44:21;8.5;;;1.6;;
48891;SDS011;50130;52.150;5.236;2023-02-26T04:47:33;6.3;;;1.4;;
48891;SDS011;50130;52.150;5.236;2023-02-26T04:49:09;4.1;;;1.0;;
48891;SDS011;50130;52.150;5.236;2023-02-26T04:50:46;6.8;;;1.3;;
48891;SDS011;50130;52.150;5.236;2023-02-26T04:54:00;7.7;;;1.3;;
48891;SDS011;50130;52.150;5.236;2023-02-26T04:55:36;6.8;;;1.4;;
48891;SDS011;50130;52.150;5.236;2023-02-26T04:57:13;6.0;;;1.3;;
48891;SDS011;50130;52.150;5.236;2023-02-26T05:00:25;5.2;;;1.11;;
48891;SDS011;50130;52.150;5.236;2023-02-26T05:02:03;7.8;;;1.6;;
48891;SDS011;50130;52.150;5.236;2023-02-26T05:03:40;5.7;;;1.4;;
48891;SDS011;50130;52.150;5.236;2023-02-26T05:05:17;6.2;;;1.3;;
48891;SDS011;50130;52.150;5.236;2023-02-26T05:08:31;6.5;;;2.0;;
48891;SDS011;50130;52.150;5.236;2023-02-26T05:10:09;6.2;;;1.2;;
48891;SDS011;50130;52.150;5.236;2023-02-26T05:11:46;6.9;;;1.5;;
48891;SDS011;50130;52.150;5.236;2023-02-26T05:15:01;3.8;;;1.0;;
48891;SDS011;50130;52.150;5.236;2023-02-26T05:16:38;6.7;;;1.5;;
48891;SDS011;50130;52.150;5.236;2023-02-26T05:18:14;10.21;;;1.9;;
48891;SDS011;50130;52.150;5.236;2023-02-26T05:19:50;5.5;;;1.11;;
48891;SDS011;50130;52.150;5.236;2023-02-26T05:23:03;7.2;;;1.11;;
48891;SDS011;50130;52.150;5.236;2023-02-26T05:24:40;6.7;;;1.3;;
48891;SDS011;50130;52.150;5.236;2023-02-26T05:26:17;7.1;;;1.4;;
48891;SDS011;50130;52.150;5.236;2023-02-26T05:29:30;8.6;;;1.4;;
48891;SDS011;50130;52.150;5.236;2023-02-26T05:31:06;6.4;;;1.3;;
48891;SDS011;50130;52.150;5.236;2023-02-26T05:32:42;7.3;;;1.2;;
48891;SDS011;50130;52.150;5.236;2023-02-26T05:35:55;5.0;;;1.2;;
48891;SDS011;50130;52.150;5.236;2023-02-26T05:37:32;9.4;;;1.6;;
48891;SDS011;50130;52.150;5.236;2023-02-26T05:39:08;4.8;;;1.2;;
48891;SDS011;50130;52.150;5.236;2023-02-26T05:40:45;6.2;;;1.7;;
48891;SDS011;50130;52.150;5.236;2023-02-26T05:43:57;5.3;;;1.5;;
48891;SDS011;50130;52.150;5.236;2023-02-26T05:45:33;4.41;;;1.11;;
48891;SDS011;50130;52.150;5.236;2023-02-26T05:47:10;6.2;;;1.3;;
48891;SDS011;50130;52.150;5.236;2023-02-26T05:50:22;6.9;;;1.4;;
48891;SDS011;50130;52.150;5.236;2023-02-26T05:51:59;4.7;;;1.11;;
48891;SDS011;50130;52.150;5.236;2023-02-26T05:53:36;6.7;;;1.11;;
48891;SDS011;50130;52.150;5.236;2023-02-26T05:56:48;9.0;;;1.5;;
48891;SDS011;50130;52.150;5.236;2023-02-26T05:58:25;5.9;;;1.6;;
48891;SDS011;50130;52.150;5.236;2023-02-26T06:00:02;8.4;;;1.5;;
48891;SDS011;50130;52.150;5.236;2023-02-26T06:01:39;9.6;;;1.3;;
48891;SDS011;50130;52.150;5.236;2023-02-26T06:04:51;9.21;;;1.4;;
48891;SDS011;50130;52.150;5.236;2023-02-26T06:06:27;8.6;;;1.4;;
48891;SDS011;50130;52.150;5.236;2023-02-26T06:08:04;6.1;;;1.3;;
48891;SDS011;50130;52.150;5.236;2023-02-26T06:11:18;6.6;;;1.4;;
48891;SDS011;50130;52.150;5.236;2023-02-26T06:12:54;7.6;;;1.3;;
48891;SDS011;50130;52.150;5.236;2023-02-26T06:14:30;8.71;;;1.4;;
48891;SDS011;50130;52.150;5.236;2023-02-26T06:19:19;6.5;;;1.3;;
48891;SDS011;50130;52.150;5.236;2023-02-26T06:20:55;5.3;;;1.11;;
48891;SDS011;50130;52.150;5.236;2023-02-26T06:24:07;4.91;;;1.8;;
48891;SDS011;50130;52.150;5.236;2023-02-26T06:25:43;7.0;;;1.3;;
48891;SDS011;50130;52.150;5.236;2023-02-26T06:27:19;4.91;;;1.4;;
48891;SDS011;50130;52.150;5.236;2023-02-26T06:28:56;7.1;;;1.6;;
48891;SDS011;50130;52.150;5.236;2023-02-26T06:32:10;6.3;;;1.3;;
48891;SDS011;50130;52.150;5.236;2023-02-26T06:33:46;5.3;;;1.3;;
48891;SDS011;50130;52.150;5.236;2023-02-26T06:35:22;6.8;;;1.3;;
48891;SDS011;50130;52.150;5.236;2023-02-26T06:38:34;7.9;;;1.3;;
48891;SDS011;50130;52.150;5.236;2023-02-26T06:40:10;7.7;;;1.3;;
48891;SDS011;50130;52.150;5.236;2023-02-26T06:41:48;9.0;;;2.0;;
48891;SDS011;50130;52.150;5.236;2023-02-26T06:45:00;4.1;;;1.11;;
48891;SDS011;50130;52.150;5.236;2023-02-26T06:46:36;5.6;;;1.3;;
48891;SDS011;50130;52.150;5.236;2023-02-26T06:48:12;4.5;;;1.2;;
48891;SDS011;50130;52.150;5.236;2023-02-26T06:49:49;6.9;;;1.3;;
48891;SDS011;50130;52.150;5.236;2023-02-26T06:53:01;4.91;;;1.3;;
48891;SDS011;50130;52.150;5.236;2023-02-26T06:54:38;4.41;;;1.3;;
48891;SDS011;50130;52.150;5.236;2023-02-26T06:56:14;7.6;;;1.9;;
48891;SDS011;50130;52.150;5.236;2023-02-26T06:59:27;7.4;;;1.4;;
48891;SDS011;50130;52.150;5.236;2023-02-26T07:01:03;5.9;;;1.3;;
48891;SDS011;50130;52.150;5.236;2023-02-26T07:02:39;5.2;;;1.5;;
48891;SDS011;50130;52.150;5.236;2023-02-26T07:05:52;5.5;;;1.3;;
48891;SDS011;50130;52.150;5.236;2023-02-26T07:07:29;6.7;;;1.3;;
48891;SDS011;50130;52.150;5.236;2023-02-26T07:09:05;4.91;;;1.6;;
48891;SDS011;50130;52.150;5.236;2023-02-26T07:10:41;9.0;;;1.5;;
48891;SDS011;50130;52.150;5.236;2023-02-26T07:13:54;5.5;;;1.2;;
48891;SDS011;50130;52.150;5.236;2023-02-26T07:15:31;6.6;;;1.4;;
48891;SDS011;50130;52.150;5.236;2023-02-26T07:17:07;7.5;;;1.4;;
48891;SDS011;50130;52.150;5.236;2023-02-26T07:20:20;5.9;;;1.3;;
48891;SDS011;50130;52.150;5.236;2023-02-26T07:21:56;8.4;;;1.5;;
48891;SDS011;50130;52.150;5.236;2023-02-26T07:23:33;6.6;;;1.7;;
48891;SDS011;50130;52.150;5.236;2023-02-26T07:26:47;6.6;;;1.5;;
48891;SDS011;50130;52.150;5.236;2023-02-26T07:28:23;6.5;;;1.2;;
48891;SDS011;50130;52.150;5.236;2023-02-26T07:30:00;6.6;;;1.4;;
48891;SDS011;50130;52.150;5.236;2023-02-26T07:31:37;6.6;;;1.4;;
48891;SDS011;50130;52.150;5.236;2023-02-26T07:34:50;5.6;;;1.3;;
48891;SDS011;50130;52.150;5.236;2023-02-26T07:36:26;10.3;;;1.7;;
48891;SDS011;50130;52.150;5.236;2023-02-26T07:38:03;5.7;;;1.3;;
48891;SDS011;50130;52.150;5.236;2023-02-26T07:41:15;8.9;;;1.4;;
48891;SDS011;50130;52.150;5.236;2023-02-26T07:42:51;4.8;;;1.11;;
48891;SDS011;50130;52.150;5.236;2023-02-26T07:44:27;8.71;;;2.31;;
48891;SDS011;50130;52.150;5.236;2023-02-26T07:47:39;6.1;;;1.9;;
48891;SDS011;50130;52.150;5.236;2023-02-26T07:49:15;8.5;;;1.5;;
48891;SDS011;50130;52.150;5.236;2023-02-26T07:50:52;8.0;;;1.6;;
48891;SDS011;50130;52.150;5.236;2023-02-26T07:54:05;7.7;;;1.8;;
48891;SDS011;50130;52.150;5.236;2023-02-26T07:55:41;7.3;;;1.3;;
48891;SDS011;50130;52.150;5.236;2023-02-26T07:57:18;7.1;;;1.5;;
48891;SDS011;50130;52.150;5.236;2023-02-26T07:58:54;7.2;;;1.3;;
48891;SDS011;50130;52.150;5.236;2023-02-26T08:02:06;7.8;;;1.4;;
48891;SDS011;50130;52.150;5.236;2023-02-26T08:03:42;5.4;;;1.4;;
48891;SDS011;50130;52.150;5.236;2023-02-26T08:05:19;6.2;;;1.3;;
48891;SDS011;50130;52.150;5.236;2023-02-26T08:08:31;6.0;;;1.3;;
48891;SDS011;50130;52.150;5.236;2023-02-26T08:10:08;6.7;;;1.6;;
48891;SDS011;50130;52.150;5.236;2023-02-26T08:11:46;7.3;;;1.6;;
48891;SDS011;50130;52.150;5.236;2023-02-26T08:14:58;6.6;;;1.5;;
48891;SDS011;50130;52.150;5.236;2023-02-26T08:16:34;8.6;;;1.7;;
48891;SDS011;50130;52.150;5.236;2023-02-26T08:18:11;7.1;;;1.4;;
48891;SDS011;50130;52.150;5.236;2023-02-26T08:19:48;7.0;;;1.2;;
48891;SDS011;50130;52.150;5.236;2023-02-26T08:23:01;8.81;;;1.9;;
48891;SDS011;50130;52.150;5.236;2023-02-26T08:24:38;6.5;;;1.3;;
48891;SDS011;50130;52.150;5.236;2023-02-26T08:26:14;8.71;;;1.4;;
48891;SDS011;50130;52.150;5.236;2023-02-26T08:29:26;4.41;;;1.2;;
48891;SDS011;50130;52.150;5.236;2023-02-26T08:31:03;6.4;;;1.4;;
48891;SDS011;50130;52.150;5.236;2023-02-26T08:32:40;7.9;;;2.0;;
48891;SDS011;50130;52.150;5.236;2023-02-26T08:35:53;9.5;;;1.4;;
48891;SDS011;50130;52.150;5.236;2023-02-26T08:37:30;6.0;;;1.5;;
48891;SDS011;50130;52.150;5.236;2023-02-26T08:39:07;7.7;;;1.7;;
48891;SDS011;50130;52.150;5.236;2023-02-26T08:40:43;7.8;;;1.2;;
48891;SDS011;50130;52.150;5.236;2023-02-26T08:43:58;8.71;;;1.5;;
48891;SDS011;50130;52.150;5.236;2023-02-26T08:45:34;7.1;;;1.3;;
48891;SDS011;50130;52.150;5.236;2023-02-26T08:47:11;5.2;;;1.2;;
48891;SDS011;50130;52.150;5.236;2023-02-26T08:50:24;6.4;;;1.4;;
48891;SDS011;50130;52.150;5.236;2023-02-26T08:52:00;7.0;;;1.5;;
48891;SDS011;50130;52.150;5.236;2023-02-26T08:53:37;7.0;;;1.4;;
48891;SDS011;50130;52.150;5.236;2023-02-26T08:56:49;8.0;;;1.6;;
48891;SDS011;50130;52.150;5.236;2023-02-26T08:58:26;5.3;;;1.11;;
48891;SDS011;50130;52.150;5.236;2023-02-26T09:00:02;6.0;;;1.2;;
48891;SDS011;50130;52.150;5.236;2023-02-26T09:01:39;5.8;;;1.2;;
48891;SDS011;50130;52.150;5.236;2023-02-26T09:04:51;3.9;;;1.2;;
48891;SDS011;50130;52.150;5.236;2023-02-26T09:06:27;4.91;;;1.11;;
48891;SDS011;50130;52.150;5.236;2023-02-26T09:08:04;5.5;;;1.2;;
48891;SDS011;50130;52.150;5.236;2023-02-26T09:11:16;4.3;;;1.11;;
48891;SDS011;50130;52.150;5.236;2023-02-26T09:12:53;5.5;;;1.11;;
48891;SDS011;50130;52.150;5.236;2023-02-26T09:14:29;6.9;;;1.11;;
48891;SDS011;50130;52.150;5.236;2023-02-26T09:17:42;4.0;;;1.0;;
48891;SDS011;50130;52.150;5.236;2023-02-26T09:19:18;5.2;;;1.2;;
48891;SDS011;50130;52.150;5.236;2023-02-26T09:20:54;2.7;;;0.9;;
48891;SDS011;50130;52.150;5.236;2023-02-26T09:22:31;6.2;;;1.11;;
48891;SDS011;50130;52.150;5.236;2023-02-26T09:25:44;6.2;;;1.7;;
48891;SDS011;50130;52.150;5.236;2023-02-26T09:27:20;4.2;;;1.2;;
48891;SDS011;50130;52.150;5.236;2023-02-26T09:28:57;4.5;;;1.0;;
48891;SDS011;50130;52.150;5.236;2023-02-26T09:32:10;5.3;;;1.11;;
48891;SDS011;50130;52.150;5.236;2023-02-26T09:33:47;4.1;;;1.11;;
48891;SDS011;50130;52.150;5.236;2023-02-26T09:35:24;5.6;;;1.2;;
48891;SDS011;50130;52.150;5.236;2023-02-26T09:38:38;3.9;;;0.8;;
48891;SDS011;50130;52.150;5.236;2023-02-26T09:40:19;5.4;;;1.2;;
48891;SDS011;50130;52.150;5.236;2023-02-26T09:42:27;5.4;;;1.2;;
48891;SDS011;50130;52.150;5.236;2023-02-26T09:44:18;5.0;;;1.3;;
48891;SDS011;50130;52.150;5.236;2023-02-26T09:45:57;4.1;;;1.11;;
48891;SDS011;50130;52.150;5.236;2023-02-26T09:47:42;6.4;;;1.2;;
48891;SDS011;50130;52.150;5.236;2023-02-26T09:51:17;5.5;;;1.2;;
48891;SDS011;50130;52.150;5.236;2023-02-26T09:52:58;3.7;;;1.0;;
48891;SDS011;50130;52.150;5.236;2023-02-26T09:54:40;47.4;;;3.4;;
48891;SDS011;50130;52.150;5.236;2023-02-26T09:56:23;71.61;;;6.6;;
48891;SDS011;50130;52.150;5.236;2023-02-26T09:59:40;13.8;;;1.8;;
48891;SDS011;50130;52.150;5.236;2023-02-26T10:01:18;5.11;;;1.11;;
48891;SDS011;50130;52.150;5.236;2023-02-26T10:03:14;3.3;;;0.8;;
48891;SDS011;50130;52.150;5.236;2023-02-26T10:04:59;4.91;;;1.2;;
48891;SDS011;50130;52.150;5.236;2023-02-26T10:06:55;4.8;;;1.0;;
48891;SDS011;50130;52.150;5.236;2023-02-26T10:08:52;4.3;;;1.0;;
48891;SDS011;50130;52.150;5.236;2023-02-26T10:10:50;4.1;;;1.0;;
48891;SDS011;50130;52.150;5.236;2023-02-26T10:14:18;3.9;;;0.7;;
48891;SDS011;50130;52.150;5.236;2023-02-26T10:16:01;3.3;;;1.0;;
48891;SDS011;50130;52.150;5.236;2023-02-26T10:17:46;3.2;;;0.9;;
48891;SDS011;50130;52.150;5.236;2023-02-26T10:19:46;3.9;;;1.2;;
48891;SDS011;50130;52.150;5.236;2023-02-26T10:21:30;2.6;;;1.0;;
48891;SDS011;50130;52.150;5.236;2023-02-26T10:23:16;5.2;;;1.0;;
48891;SDS011;50130;52.150;5.236;2023-02-26T10:26:42;3.2;;;1.0;;
48891;SDS011;50130;52.150;5.236;2023-02-26T10:28:33;4.8;;;1.0;;
48891;SDS011;50130;52.150;5.236;2023-02-26T10:30:25;2.5;;;0.7;;
48891;SDS011;50130;52.150;5.236;2023-02-26T10:32:14;5.7;;;1.11;;
48891;SDS011;50130;52.150;5.236;2023-02-26T10:34:05;4.3;;;1.11;;
48891;SDS011;50130;52.150;5.236;2023-02-26T10:35:52;3.5;;;1.0;;
48891;SDS011;50130;52.150;5.236;2023-02-26T10:39:28;4.0;;;1.0;;
48891;SDS011;50130;52.150;5.236;2023-02-26T10:41:08;3.3;;;1.11;;
48891;SDS011;50130;52.150;5.236;2023-02-26T10:42:51;2.1;;;0.8;;
48891;SDS011;50130;52.150;5.236;2023-02-26T10:44:34;4.41;;;1.0;;
48891;SDS011;50130;52.150;5.236;2023-02-26T10:46:21;4.41;;;1.0;;
48891;SDS011;50130;52.150;5.236;2023-02-26T10:50:00;3.0;;;0.9;;
48891;SDS011;50130;52.150;5.236;2023-02-26T10:51:41;5.11;;;0.9;;
48891;SDS011;50130;52.150;5.236;2023-02-26T10:53:19;3.6;;;0.9;;
48891;SDS011;50130;52.150;5.236;2023-02-26T10:55:02;3.4;;;0.9;;
48891;SDS011;50130;52.150;5.236;2023-02-26T10:57:11;3.7;;;1.11;;
48891;SDS011;50130;52.150;5.236;2023-02-26T10:58:54;5.11;;;0.9;;
48891;SDS011;50130;52.150;5.236;2023-02-26T11:02:12;5.2;;;1.0;;
48891;SDS011;50130;52.150;5.236;2023-02-26T11:04:12;4.7;;;1.0;;
48891;SDS011;50130;52.150;5.236;2023-02-26T11:05:52;5.11;;;0.8;;
48891;SDS011;50130;52.150;5.236;2023-02-26T11:07:28;3.0;;;0.8;;
48891;SDS011;50130;52.150;5.236;2023-02-26T11:10:57;4.41;;;0.9;;
48891;SDS011;50130;52.150;5.236;2023-02-26T11:12:36;7.9;;;1.11;;
48891;SDS011;50130;52.150;5.236;2023-02-26T11:14:12;8.0;;;1.3;;
48891;SDS011;50130;52.150;5.236;2023-02-26T11:15:50;3.7;;;0.9;;
48891;SDS011;50130;52.150;5.236;2023-02-26T11:17:32;4.8;;;0.9;;
48891;SDS011;50130;52.150;5.236;2023-02-26T11:20:49;3.0;;;0.9;;
48891;SDS011;50130;52.150;5.236;2023-02-26T11:22:31;3.5;;;1.0;;
48891;SDS011;50130;52.150;5.236;2023-02-26T11:24:10;7.6;;;1.2;;
48891;SDS011;50130;52.150;5.236;2023-02-26T11:29:13;3.8;;;1.0;;
48891;SDS011;50130;52.150;5.236;2023-02-26T11:30:52;3.3;;;1.0;;
48891;SDS011;50130;52.150;5.236;2023-02-26T11:32:29;4.0;;;1.0;;
48891;SDS011;50130;52.150;5.236;2023-02-26T11:35:47;4.5;;;0.9;;
48891;SDS011;50130;52.150;5.236;2023-02-26T11:37:27;3.8;;;0.8;;
48891;SDS011;50130;52.150;5.236;2023-02-26T11:39:07;3.9;;;1.2;;
48891;SDS011;50130;52.150;5.236;2023-02-26T11:40:51;3.1;;;1.11;;
48891;SDS011;50130;52.150;5.236;2023-02-26T11:44:12;4.61;;;1.0;;
48891;SDS011;50130;52.150;5.236;2023-02-26T11:45:52;2.9;;;0.9;;
48891;SDS011;50130;52.150;5.236;2023-02-26T11:47:32;2.7;;;0.9;;
48891;SDS011;50130;52.150;5.236;2023-02-26T11:49:09;2.4;;;0.9;;
48891;SDS011;50130;52.150;5.236;2023-02-26T11:52:32;3.7;;;0.8;;
48891;SDS011;50130;52.150;5.236;2023-02-26T11:54:18;3.7;;;0.9;;
48891;SDS011;50130;52.150;5.236;2023-02-26T11:55:59;4.2;;;1.11;;
48891;SDS011;50130;52.150;5.236;2023-02-26T11:57:37;3.9;;;0.9;;
48891;SDS011;50130;52.150;5.236;2023-02-26T12:00:58;3.5;;;1.0;;
48891;SDS011;50130;52.150;5.236;2023-02-26T12:02:38;3.7;;;1.0;;
48891;SDS011;50130;52.150;5.236;2023-02-26T12:04:17;2.31;;;0.8;;
48891;SDS011;50130;52.150;5.236;2023-02-26T12:05:56;2.8;;;0.9;;
48891;SDS011;50130;52.150;5.236;2023-02-26T12:09:12;2.6;;;0.9;;
48891;SDS011;50130;52.150;5.236;2023-02-26T12:10:53;3.6;;;0.9;;
48891;SDS011;50130;52.150;5.236;2023-02-26T12:12:45;3.9;;;0.8;;
48891;SDS011;50130;52.150;5.236;2023-02-26T12:14:38;3.2;;;1.0;;
48891;SDS011;50130;52.150;5.236;2023-02-26T12:16:45;2.21;;;0.8;;
48891;SDS011;50130;52.150;5.236;2023-02-26T12:18:54;3.8;;;1.0;;
48891;SDS011;50130;52.150;5.236;2023-02-26T12:20:42;2.9;;;1.0;;
48891;SDS011;50130;52.150;5.236;2023-02-26T12:22:34;3.3;;;0.8;;
48891;SDS011;50130;52.150;5.236;2023-02-26T12:26:33;3.1;;;0.9;;
48891;SDS011;50130;52.150;5.236;2023-02-26T12:28:21;2.8;;;0.7;;
48891;SDS011;50130;52.150;5.236;2023-02-26T12:31:21;4.2;;;0.8;;
48891;SDS011;50130;52.150;5.236;2023-02-26T12:33:38;2.5;;;0.7;;
48891;SDS011;50130;52.150;5.236;2023-02-26T12:35:36;3.3;;;0.8;;
48891;SDS011;50130;52.150;5.236;2023-02-26T12:37:57;3.2;;;0.9;;
48891;SDS011;50130;52.150;5.236;2023-02-26T12:42:21;2.6;;;0.8;;
48891;SDS011;50130;52.150;5.236;2023-02-26T12:44:15;4.5;;;0.9;;
48891;SDS011;50130;52.150;5.236;2023-02-26T12:46:06;3.0;;;0.8;;
48891;SDS011;50130;52.150;5.236;2023-02-26T12:47:57;3.3;;;1.3;;
48891;SDS011;50130;52.150;5.236;2023-02-26T12:49:51;3.1;;;0.9;;
48891;SDS011;50130;52.150;5.236;2023-02-26T12:51:45;2.1;;;0.7;;
48891;SDS011;50130;52.150;5.236;2023-02-26T12:55:45;2.7;;;0.8;;
48891;SDS011;50130;52.150;5.236;2023-02-26T12:57:46;2.8;;;1.2;;
48891;SDS011;50130;52.150;5.236;2023-02-26T13:00:06;3.0;;;0.7;;
48891;SDS011;50130;52.150;5.236;2023-02-26T13:03:12;1.9;;;0.7;;
48891;SDS011;50130;52.150;5.236;2023-02-26T13:07:36;3.3;;;0.9;;
48891;SDS011;50130;52.150;5.236;2023-02-26T13:09:30;4.2;;;0.9;;